sensor_id;sensor_type;location;lat;lon;timestamp;P1;durP1;ratioP1;P2;durP2;ratioP2
42866;SDS011;39461;40.948;73.006;2023-02-26T00:01:10;86.30;;;55.50;;
42866;SDS011;39461;40.948;73.006;2023-02-26T00:03:47;81.22;;;52.03;;
42866;SDS011;39461;40.948;73.006;2023-02-26T00:06:20;80.72;;;51.90;;
42866;SDS011;39461;40.948;73.006;2023-02-26T00:08:53;81.95;;;52.08;;
42866;SDS011;39461;40.948;73.006;2023-02-26T00:11:27;83.43;;;53.22;;
42866;SDS011;39461;40.948;73.006;2023-02-26T00:14:00;81.45;;;52.80;;
42866;SDS011;39461;40.948;73.006;2023-02-26T00:16:34;81.88;;;54.13;;
42866;SDS011;39461;40.948;73.006;2023-02-26T00:19:09;90.65;;;53.50;;
42866;SDS011;39461;40.948;73.006;2023-02-26T00:21:42;85.07;;;50.10;;
42866;SDS011;39461;40.948;73.006;2023-02-26T00:24:13;90.20;;;53.38;;
42866;SDS011;39461;40.948;73.006;2023-02-26T00:26:42;78.18;;;49.75;;
42866;SDS011;39461;40.948;73.006;2023-02-26T00:29:15;72.40;;;48.83;;
42866;SDS011;39461;40.948;73.006;2023-02-26T00:31:48;74.10;;;48.90;;
42866;SDS011;39461;40.948;73.006;2023-02-26T00:40:03;69.72;;;45.85;;
42866;SDS011;39461;40.948;73.006;2023-02-26T00:42:42;75.10;;;45.92;;
42866;SDS011;39461;40.948;73.006;2023-02-26T00:45:18;78.65;;;47.13;;
42866;SDS011;39461;40.948;73.006;2023-02-26T00:47:58;70.65;;;46.53;;
42866;SDS011;39461;40.948;73.006;2023-02-26T00:50:32;79.45;;;48.47;;
42866;SDS011;39461;40.948;73.006;2023-02-26T00:55:38;83.03;;;49.72;;
42866;SDS011;39461;40.948;73.006;2023-02-26T00:58:11;80.28;;;49.55;;
42866;SDS011;39461;40.948;73.006;2023-02-26T01:00:44;74.60;;;47.65;;
42866;SDS011;39461;40.948;73.006;2023-02-26T01:03:17;78.05;;;50.47;;
42866;SDS011;39461;40.948;73.006;2023-02-26T01:05:51;74.57;;;48.65;;
42866;SDS011;39461;40.948;73.006;2023-02-26T01:11:36;80.35;;;51.75;;
42866;SDS011;39461;40.948;73.006;2023-02-26T01:14:11;81.20;;;53.25;;
42866;SDS011;39461;40.948;73.006;2023-02-26T01:20:00;88.20;;;54.42;;
42866;SDS011;39461;40.948;73.006;2023-02-26T01:25:26;88.72;;;53.45;;
42866;SDS011;39461;40.948;73.006;2023-02-26T01:28:03;81.85;;;51.70;;
42866;SDS011;39461;40.948;73.006;2023-02-26T01:30:38;82.15;;;52.22;;
42866;SDS011;39461;40.948;73.006;2023-02-26T01:33:20;86.57;;;53.22;;
42866;SDS011;39461;40.948;73.006;2023-02-26T01:39:03;84.65;;;53.30;;
42866;SDS011;39461;40.948;73.006;2023-02-26T01:41:50;83.28;;;53.50;;
42866;SDS011;39461;40.948;73.006;2023-02-26T01:44:30;89.72;;;52.03;;
42866;SDS011;39461;40.948;73.006;2023-02-26T01:49:42;94.32;;;56.00;;
42866;SDS011;39461;40.948;73.006;2023-02-26T01:55:08;101.63;;;59.17;;
42866;SDS011;39461;40.948;73.006;2023-02-26T02:00:42;100.13;;;57.58;;
42866;SDS011;39461;40.948;73.006;2023-02-26T02:03:17;112.93;;;59.15;;
42866;SDS011;39461;40.948;73.006;2023-02-26T02:05:54;104.85;;;61.33;;
42866;SDS011;39461;40.948;73.006;2023-02-26T02:08:29;103.30;;;61.13;;
42866;SDS011;39461;40.948;73.006;2023-02-26T02:11:10;105.45;;;62.45;;
42866;SDS011;39461;40.948;73.006;2023-02-26T02:16:44;119.68;;;67.47;;
42866;SDS011;39461;40.948;73.006;2023-02-26T02:20:09;110.53;;;67.78;;
42866;SDS011;39461;40.948;73.006;2023-02-26T02:27:41;97.07;;;59.92;;
42866;SDS011;39461;40.948;73.006;2023-02-26T02:30:19;96.10;;;59.83;;
42866;SDS011;39461;40.948;73.006;2023-02-26T02:33:00;101.43;;;62.53;;
42866;SDS011;39461;40.948;73.006;2023-02-26T02:35:43;90.97;;;57.13;;
42866;SDS011;39461;40.948;73.006;2023-02-26T02:38:26;101.88;;;56.42;;
42866;SDS011;39461;40.948;73.006;2023-02-26T02:41:05;106.47;;;59.17;;
42866;SDS011;39461;40.948;73.006;2023-02-26T02:43:39;116.47;;;57.05;;
42866;SDS011;39461;40.948;73.006;2023-02-26T02:46:15;118.20;;;57.15;;
42866;SDS011;39461;40.948;73.006;2023-02-26T02:48:55;119.90;;;59.53;;
42866;SDS011;39461;40.948;73.006;2023-02-26T02:51:31;122.85;;;55.05;;
42866;SDS011;39461;40.948;73.006;2023-02-26T02:59:37;117.28;;;53.50;;
42866;SDS011;39461;40.948;73.006;2023-02-26T03:04:48;116.75;;;53.85;;
42866;SDS011;39461;40.948;73.006;2023-02-26T03:07:22;112.40;;;57.20;;
42866;SDS011;39461;40.948;73.006;2023-02-26T03:09:56;125.95;;;57.28;;
42866;SDS011;39461;40.948;73.006;2023-02-26T03:12:32;120.22;;;52.75;;
42866;SDS011;39461;40.948;73.006;2023-02-26T03:15:05;115.97;;;51.97;;
42866;SDS011;39461;40.948;73.006;2023-02-26T03:17:45;115.63;;;50.60;;
42866;SDS011;39461;40.948;73.006;2023-02-26T03:20:24;114.38;;;49.92;;
42866;SDS011;39461;40.948;73.006;2023-02-26T03:23:01;154.90;;;52.58;;
42866;SDS011;39461;40.948;73.006;2023-02-26T03:25:41;111.65;;;48.30;;
42866;SDS011;39461;40.948;73.006;2023-02-26T03:36:30;88.93;;;40.47;;
42866;SDS011;39461;40.948;73.006;2023-02-26T03:42:03;86.47;;;40.15;;
42866;SDS011;39461;40.948;73.006;2023-02-26T03:44:41;87.70;;;40.95;;
42866;SDS011;39461;40.948;73.006;2023-02-26T03:47:17;85.88;;;39.17;;
42866;SDS011;39461;40.948;73.006;2023-02-26T03:49:54;79.55;;;38.95;;
42866;SDS011;39461;40.948;73.006;2023-02-26T03:52:30;80.63;;;39.05;;
42866;SDS011;39461;40.948;73.006;2023-02-26T03:57:39;94.30;;;45.92;;
42866;SDS011;39461;40.948;73.006;2023-02-26T04:00:18;105.72;;;48.67;;
42866;SDS011;39461;40.948;73.006;2023-02-26T04:03:03;81.63;;;43.33;;
42866;SDS011;39461;40.948;73.006;2023-02-26T04:05:39;81.15;;;42.47;;
42866;SDS011;39461;40.948;73.006;2023-02-26T04:08:14;84.45;;;45.03;;
42866;SDS011;39461;40.948;73.006;2023-02-26T04:11:03;76.88;;;40.08;;
42866;SDS011;39461;40.948;73.006;2023-02-26T04:13:37;75.50;;;42.15;;
42866;SDS011;39461;40.948;73.006;2023-02-26T04:16:12;68.95;;;36.97;;
42866;SDS011;39461;40.948;73.006;2023-02-26T04:18:46;68.68;;;36.58;;
42866;SDS011;39461;40.948;73.006;2023-02-26T04:21:20;60.92;;;33.95;;
42866;SDS011;39461;40.948;73.006;2023-02-26T04:23:53;68.28;;;35.30;;
42866;SDS011;39461;40.948;73.006;2023-02-26T04:26:20;50.03;;;29.20;;
42866;SDS011;39461;40.948;73.006;2023-02-26T04:28:54;51.80;;;30.38;;
42866;SDS011;39461;40.948;73.006;2023-02-26T04:31:27;46.67;;;27.30;;
42866;SDS011;39461;40.948;73.006;2023-02-26T04:34:00;48.22;;;27.73;;
42866;SDS011;39461;40.948;73.006;2023-02-26T04:36:33;49.55;;;27.23;;
42866;SDS011;39461;40.948;73.006;2023-02-26T04:39:07;48.45;;;27.17;;
42866;SDS011;39461;40.948;73.006;2023-02-26T04:41:41;48.70;;;26.08;;
42866;SDS011;39461;40.948;73.006;2023-02-26T04:44:14;52.55;;;27.08;;
42866;SDS011;39461;40.948;73.006;2023-02-26T04:46:47;48.08;;;28.00;;
42866;SDS011;39461;40.948;73.006;2023-02-26T04:49:24;54.90;;;29.48;;
42866;SDS011;39461;40.948;73.006;2023-02-26T04:51:57;48.50;;;27.90;;
42866;SDS011;39461;40.948;73.006;2023-02-26T04:54:31;52.80;;;28.30;;
42866;SDS011;39461;40.948;73.006;2023-02-26T04:57:04;56.53;;;30.48;;
42866;SDS011;39461;40.948;73.006;2023-02-26T04:59:37;54.78;;;29.33;;
42866;SDS011;39461;40.948;73.006;2023-02-26T05:02:10;50.33;;;29.60;;
42866;SDS011;39461;40.948;73.006;2023-02-26T05:04:43;54.88;;;29.38;;
42866;SDS011;39461;40.948;73.006;2023-02-26T05:07:16;55.42;;;32.78;;
42866;SDS011;39461;40.948;73.006;2023-02-26T05:09:49;54.08;;;31.10;;
42866;SDS011;39461;40.948;73.006;2023-02-26T05:12:22;48.00;;;29.75;;
42866;SDS011;39461;40.948;73.006;2023-02-26T05:15:02;55.72;;;32.45;;
42866;SDS011;39461;40.948;73.006;2023-02-26T05:17:35;48.85;;;28.33;;
42866;SDS011;39461;40.948;73.006;2023-02-26T05:20:08;47.28;;;25.10;;
42866;SDS011;39461;40.948;73.006;2023-02-26T05:22:46;40.83;;;24.85;;
42866;SDS011;39461;40.948;73.006;2023-02-26T05:25:19;43.08;;;25.10;;
42866;SDS011;39461;40.948;73.006;2023-02-26T05:27:52;48.78;;;27.95;;
42866;SDS011;39461;40.948;73.006;2023-02-26T05:30:32;46.42;;;27.38;;
42866;SDS011;39461;40.948;73.006;2023-02-26T05:33:05;44.28;;;26.25;;
42866;SDS011;39461;40.948;73.006;2023-02-26T05:35:39;48.13;;;28.67;;
42866;SDS011;39461;40.948;73.006;2023-02-26T05:38:18;50.33;;;28.60;;
42866;SDS011;39461;40.948;73.006;2023-02-26T05:40:54;58.22;;;32.10;;
42866;SDS011;39461;40.948;73.006;2023-02-26T05:43:28;66.82;;;35.58;;
42866;SDS011;39461;40.948;73.006;2023-02-26T05:46:02;100.80;;;54.78;;
42866;SDS011;39461;40.948;73.006;2023-02-26T05:48:36;120.30;;;64.95;;
42866;SDS011;39461;40.948;73.006;2023-02-26T05:51:09;120.80;;;62.72;;
42866;SDS011;39461;40.948;73.006;2023-02-26T05:53:42;119.43;;;64.07;;
42866;SDS011;39461;40.948;73.006;2023-02-26T05:56:17;116.15;;;64.30;;
42866;SDS011;39461;40.948;73.006;2023-02-26T05:58:53;113.93;;;62.97;;
42866;SDS011;39461;40.948;73.006;2023-02-26T06:01:27;112.82;;;62.17;;
42866;SDS011;39461;40.948;73.006;2023-02-26T06:04:03;110.10;;;60.50;;
42866;SDS011;39461;40.948;73.006;2023-02-26T06:06:39;114.68;;;65.07;;
42866;SDS011;39461;40.948;73.006;2023-02-26T06:09:13;113.45;;;64.20;;
42866;SDS011;39461;40.948;73.006;2023-02-26T06:11:46;119.88;;;64.93;;
42866;SDS011;39461;40.948;73.006;2023-02-26T06:14:19;128.63;;;71.70;;
42866;SDS011;39461;40.948;73.006;2023-02-26T06:16:52;128.18;;;70.78;;
42866;SDS011;39461;40.948;73.006;2023-02-26T06:19:26;126.43;;;70.60;;
42866;SDS011;39461;40.948;73.006;2023-02-26T06:22:00;123.22;;;69.45;;
42866;SDS011;39461;40.948;73.006;2023-02-26T06:24:29;126.90;;;69.72;;
42866;SDS011;39461;40.948;73.006;2023-02-26T06:26:58;124.65;;;69.10;;
42866;SDS011;39461;40.948;73.006;2023-02-26T06:29:31;120.60;;;69.78;;
42866;SDS011;39461;40.948;73.006;2023-02-26T06:32:08;121.22;;;66.80;;
42866;SDS011;39461;40.948;73.006;2023-02-26T06:34:41;114.18;;;66.07;;
42866;SDS011;39461;40.948;73.006;2023-02-26T06:37:14;117.43;;;69.15;;
42866;SDS011;39461;40.948;73.006;2023-02-26T06:39:47;119.32;;;70.55;;
42866;SDS011;39461;40.948;73.006;2023-02-26T06:42:20;129.02;;;74.75;;
42866;SDS011;39461;40.948;73.006;2023-02-26T06:44:55;120.05;;;71.25;;
42866;SDS011;39461;40.948;73.006;2023-02-26T06:47:28;115.75;;;70.63;;
42866;SDS011;39461;40.948;73.006;2023-02-26T06:50:03;116.68;;;71.13;;
42866;SDS011;39461;40.948;73.006;2023-02-26T06:52:37;122.15;;;74.20;;
42866;SDS011;39461;40.948;73.006;2023-02-26T06:55:10;163.10;;;101.57;;
42866;SDS011;39461;40.948;73.006;2023-02-26T06:57:49;167.07;;;97.70;;
42866;SDS011;39461;40.948;73.006;2023-02-26T07:00:23;181.85;;;102.90;;
42866;SDS011;39461;40.948;73.006;2023-02-26T07:02:56;145.70;;;86.63;;
42866;SDS011;39461;40.948;73.006;2023-02-26T07:05:29;146.52;;;83.60;;
42866;SDS011;39461;40.948;73.006;2023-02-26T07:08:02;137.55;;;86.80;;
42866;SDS011;39461;40.948;73.006;2023-02-26T07:10:36;162.15;;;97.30;;
42866;SDS011;39461;40.948;73.006;2023-02-26T07:13:10;134.77;;;83.57;;
42866;SDS011;39461;40.948;73.006;2023-02-26T07:15:44;126.15;;;77.25;;
42866;SDS011;39461;40.948;73.006;2023-02-26T07:18:17;133.25;;;80.30;;
42866;SDS011;39461;40.948;73.006;2023-02-26T07:20:50;145.07;;;88.32;;
42866;SDS011;39461;40.948;73.006;2023-02-26T07:23:29;147.00;;;92.25;;
42866;SDS011;39461;40.948;73.006;2023-02-26T07:26:06;134.25;;;80.65;;
42866;SDS011;39461;40.948;73.006;2023-02-26T07:28:39;127.18;;;78.85;;
42866;SDS011;39461;40.948;73.006;2023-02-26T07:31:13;128.30;;;78.00;;
42866;SDS011;39461;40.948;73.006;2023-02-26T07:33:47;124.82;;;73.55;;
42866;SDS011;39461;40.948;73.006;2023-02-26T07:36:20;135.20;;;81.20;;
42866;SDS011;39461;40.948;73.006;2023-02-26T07:38:55;169.82;;;108.80;;
42866;SDS011;39461;40.948;73.006;2023-02-26T07:41:28;140.52;;;85.72;;
42866;SDS011;39461;40.948;73.006;2023-02-26T07:44:01;127.55;;;78.68;;
42866;SDS011;39461;40.948;73.006;2023-02-26T07:46:34;115.50;;;72.00;;
42866;SDS011;39461;40.948;73.006;2023-02-26T07:49:07;114.72;;;70.00;;
42866;SDS011;39461;40.948;73.006;2023-02-26T07:51:41;129.48;;;79.80;;
42866;SDS011;39461;40.948;73.006;2023-02-26T07:54:16;122.43;;;76.47;;
42866;SDS011;39461;40.948;73.006;2023-02-26T07:56:51;118.63;;;72.25;;
42866;SDS011;39461;40.948;73.006;2023-02-26T07:59:26;129.25;;;79.53;;
42866;SDS011;39461;40.948;73.006;2023-02-26T08:02:01;111.53;;;71.97;;
42866;SDS011;39461;40.948;73.006;2023-02-26T08:04:37;116.18;;;73.72;;
42866;SDS011;39461;40.948;73.006;2023-02-26T08:10:10;103.20;;;65.45;;
42866;SDS011;39461;40.948;73.006;2023-02-26T08:12:45;106.63;;;68.63;;
42866;SDS011;39461;40.948;73.006;2023-02-26T08:15:21;113.57;;;70.72;;
42866;SDS011;39461;40.948;73.006;2023-02-26T08:17:57;105.80;;;68.05;;
42866;SDS011;39461;40.948;73.006;2023-02-26T08:20:36;106.18;;;67.63;;
42866;SDS011;39461;40.948;73.006;2023-02-26T08:23:09;109.70;;;71.13;;
42866;SDS011;39461;40.948;73.006;2023-02-26T08:25:38;110.10;;;70.13;;
42866;SDS011;39461;40.948;73.006;2023-02-26T08:28:05;112.80;;;73.70;;
42866;SDS011;39461;40.948;73.006;2023-02-26T08:30:38;112.28;;;72.95;;
42866;SDS011;39461;40.948;73.006;2023-02-26T08:33:11;109.00;;;69.70;;
42866;SDS011;39461;40.948;73.006;2023-02-26T08:35:44;114.20;;;71.70;;
42866;SDS011;39461;40.948;73.006;2023-02-26T08:38:21;117.85;;;72.82;;
42866;SDS011;39461;40.948;73.006;2023-02-26T08:40:54;109.03;;;72.55;;
42866;SDS011;39461;40.948;73.006;2023-02-26T08:43:28;100.75;;;66.80;;
42866;SDS011;39461;40.948;73.006;2023-02-26T08:46:01;112.60;;;71.68;;
42866;SDS011;39461;40.948;73.006;2023-02-26T08:48:34;118.22;;;75.30;;
42866;SDS011;39461;40.948;73.006;2023-02-26T08:51:07;106.30;;;68.97;;
42866;SDS011;39461;40.948;73.006;2023-02-26T08:53:40;109.30;;;69.82;;
42866;SDS011;39461;40.948;73.006;2023-02-26T08:56:16;113.07;;;71.40;;
42866;SDS011;39461;40.948;73.006;2023-02-26T08:58:49;111.38;;;70.75;;
42866;SDS011;39461;40.948;73.006;2023-02-26T09:01:22;111.25;;;72.22;;
42866;SDS011;39461;40.948;73.006;2023-02-26T09:03:55;109.25;;;69.10;;
42866;SDS011;39461;40.948;73.006;2023-02-26T09:06:28;102.70;;;66.68;;
42866;SDS011;39461;40.948;73.006;2023-02-26T09:09:01;100.18;;;67.20;;
42866;SDS011;39461;40.948;73.006;2023-02-26T09:11:40;103.80;;;65.43;;
42866;SDS011;39461;40.948;73.006;2023-02-26T09:14:17;109.72;;;68.05;;
42866;SDS011;39461;40.948;73.006;2023-02-26T09:16:54;93.45;;;62.45;;
42866;SDS011;39461;40.948;73.006;2023-02-26T09:19:29;89.88;;;62.20;;
42866;SDS011;39461;40.948;73.006;2023-02-26T09:22:04;97.75;;;62.83;;
42866;SDS011;39461;40.948;73.006;2023-02-26T09:24:39;109.07;;;63.58;;
42866;SDS011;39461;40.948;73.006;2023-02-26T09:27:15;108.45;;;65.97;;
42866;SDS011;39461;40.948;73.006;2023-02-26T09:29:50;105.75;;;68.03;;
42866;SDS011;39461;40.948;73.006;2023-02-26T09:32:25;106.60;;;64.57;;
42866;SDS011;39461;40.948;73.006;2023-02-26T09:35:06;98.18;;;64.10;;
42866;SDS011;39461;40.948;73.006;2023-02-26T09:37:40;92.85;;;58.70;;
42866;SDS011;39461;40.948;73.006;2023-02-26T09:40:25;91.22;;;57.95;;
42866;SDS011;39461;40.948;73.006;2023-02-26T09:46:00;91.63;;;59.90;;
42866;SDS011;39461;40.948;73.006;2023-02-26T09:48:34;90.32;;;59.72;;
42866;SDS011;39461;40.948;73.006;2023-02-26T09:51:09;89.78;;;60.63;;
42866;SDS011;39461;40.948;73.006;2023-02-26T09:53:52;102.60;;;66.05;;
42866;SDS011;39461;40.948;73.006;2023-02-26T09:56:25;93.15;;;60.38;;
42866;SDS011;39461;40.948;73.006;2023-02-26T09:59:01;88.88;;;59.08;;
42866;SDS011;39461;40.948;73.006;2023-02-26T10:01:36;95.85;;;63.30;;
42866;SDS011;39461;40.948;73.006;2023-02-26T10:12:35;94.47;;;62.47;;
42866;SDS011;39461;40.948;73.006;2023-02-26T10:15:19;99.57;;;64.10;;
42866;SDS011;39461;40.948;73.006;2023-02-26T10:23:38;88.63;;;59.47;;
42866;SDS011;39461;40.948;73.006;2023-02-26T10:26:29;94.40;;;61.28;;
42866;SDS011;39461;40.948;73.006;2023-02-26T10:29:16;95.75;;;62.80;;
42866;SDS011;39461;40.948;73.006;2023-02-26T10:46:33;80.78;;;54.97;;
42866;SDS011;39461;40.948;73.006;2023-02-26T10:51:23;75.53;;;50.17;;
42866;SDS011;39461;40.948;73.006;2023-02-26T10:53:59;77.65;;;51.67;;
42866;SDS011;39461;40.948;73.006;2023-02-26T10:59:33;81.15;;;54.05;;
42866;SDS011;39461;40.948;73.006;2023-02-26T11:02:12;90.93;;;54.42;;
42866;SDS011;39461;40.948;73.006;2023-02-26T11:25:34;82.88;;;54.40;;
42866;SDS011;39461;40.948;73.006;2023-02-26T11:30:51;79.50;;;53.08;;
42866;SDS011;39461;40.948;73.006;2023-02-26T11:33:27;77.07;;;51.47;;
42866;SDS011;39461;40.948;73.006;2023-02-26T11:36:02;83.82;;;51.70;;
42866;SDS011;39461;40.948;73.006;2023-02-26T11:38:37;78.50;;;52.70;;
42866;SDS011;39461;40.948;73.006;2023-02-26T11:41:13;77.07;;;53.50;;
42866;SDS011;39461;40.948;73.006;2023-02-26T11:43:47;82.07;;;52.88;;
42866;SDS011;39461;40.948;73.006;2023-02-26T11:46:22;85.57;;;53.88;;
42866;SDS011;39461;40.948;73.006;2023-02-26T11:48:57;79.65;;;53.45;;
42866;SDS011;39461;40.948;73.006;2023-02-26T11:51:31;81.13;;;53.42;;
42866;SDS011;39461;40.948;73.006;2023-02-26T11:54:10;80.47;;;52.35;;
42866;SDS011;39461;40.948;73.006;2023-02-26T11:56:51;81.72;;;53.05;;
42866;SDS011;39461;40.948;73.006;2023-02-26T11:59:24;82.10;;;53.25;;
42866;SDS011;39461;40.948;73.006;2023-02-26T12:02:01;77.82;;;53.10;;
42866;SDS011;39461;40.948;73.006;2023-02-26T12:04:39;81.85;;;52.60;;
42866;SDS011;39461;40.948;73.006;2023-02-26T12:07:16;78.85;;;49.80;;
42866;SDS011;39461;40.948;73.006;2023-02-26T12:09:49;79.80;;;52.72;;
42866;SDS011;39461;40.948;73.006;2023-02-26T12:25:45;90.68;;;56.42;;
42866;SDS011;39461;40.948;73.006;2023-02-26T12:42:44;123.38;;;76.90;;
42866;SDS011;39461;40.948;73.006;2023-02-26T12:45:33;140.93;;;85.53;;
42866;SDS011;39461;40.948;73.006;2023-02-26T13:18:06;172.57;;;102.90;;
42866;SDS011;39461;40.948;73.006;2023-02-26T13:20:51;177.07;;;108.55;;
42866;SDS011;39461;40.948;73.006;2023-02-26T13:23:40;190.45;;;106.47;;
42866;SDS011;39461;40.948;73.006;2023-02-26T13:26:15;177.40;;;108.18;;
42866;SDS011;39461;40.948;73.006;2023-02-26T13:28:51;184.15;;;112.20;;
42866;SDS011;39461;40.948;73.006;2023-02-26T13:31:27;190.40;;;113.05;;
42866;SDS011;39461;40.948;73.006;2023-02-26T13:34:03;186.45;;;112.82;;
42866;SDS011;39461;40.948;73.006;2023-02-26T13:36:38;190.48;;;111.32;;
42866;SDS011;39461;40.948;73.006;2023-02-26T13:39:29;196.88;;;114.07;;
42866;SDS011;39461;40.948;73.006;2023-02-26T13:53:41;256.48;;;132.18;;
42866;SDS011;39461;40.948;73.006;2023-02-26T13:58:54;263.58;;;144.13;;
42866;SDS011;39461;40.948;73.006;2023-02-26T14:01:47;296.13;;;162.93;;
42866;SDS011;39461;40.948;73.006;2023-02-26T14:06:58;281.63;;;168.15;;
42866;SDS011;39461;40.948;73.006;2023-02-26T14:09:56;334.92;;;188.13;;
42866;SDS011;39461;40.948;73.006;2023-02-26T14:12:33;326.27;;;191.05;;
42866;SDS011;39461;40.948;73.006;2023-02-26T14:17:50;363.63;;;221.07;;
42866;SDS011;39461;40.948;73.006;2023-02-26T14:20:29;389.80;;;232.10;;
42866;SDS011;39461;40.948;73.006;2023-02-26T14:25:47;361.88;;;222.35;;
42866;SDS011;39461;40.948;73.006;2023-02-26T14:33:39;381.38;;;231.68;;
42866;SDS011;39461;40.948;73.006;2023-02-26T14:36:20;369.80;;;223.23;;
42866;SDS011;39461;40.948;73.006;2023-02-26T14:38:56;372.38;;;228.27;;
42866;SDS011;39461;40.948;73.006;2023-02-26T14:41:36;358.48;;;227.90;;
42866;SDS011;39461;40.948;73.006;2023-02-26T14:44:19;370.98;;;241.30;;
42866;SDS011;39461;40.948;73.006;2023-02-26T14:46:54;424.15;;;264.52;;
42866;SDS011;39461;40.948;73.006;2023-02-26T14:49:37;412.23;;;263.63;;
42866;SDS011;39461;40.948;73.006;2023-02-26T14:57:29;389.35;;;247.68;;
42866;SDS011;39461;40.948;73.006;2023-02-26T15:08:42;344.98;;;205.70;;
42866;SDS011;39461;40.948;73.006;2023-02-26T15:13:58;310.75;;;178.63;;
42866;SDS011;39461;40.948;73.006;2023-02-26T15:16:55;267.88;;;155.98;;
42866;SDS011;39461;40.948;73.006;2023-02-26T15:24:44;242.77;;;145.32;;
42866;SDS011;39461;40.948;73.006;2023-02-26T15:27:18;252.50;;;145.50;;
42866;SDS011;39461;40.948;73.006;2023-02-26T15:29:52;238.23;;;134.95;;
42866;SDS011;39461;40.948;73.006;2023-02-26T15:32:29;226.70;;;130.98;;
42866;SDS011;39461;40.948;73.006;2023-02-26T15:35:06;211.15;;;121.00;;
42866;SDS011;39461;40.948;73.006;2023-02-26T15:37:47;208.13;;;121.75;;
42866;SDS011;39461;40.948;73.006;2023-02-26T15:40:24;201.65;;;115.07;;
42866;SDS011;39461;40.948;73.006;2023-02-26T15:42:58;194.88;;;112.07;;
42866;SDS011;39461;40.948;73.006;2023-02-26T15:48:18;203.05;;;117.78;;
42866;SDS011;39461;40.948;73.006;2023-02-26T15:50:52;203.25;;;119.13;;
42866;SDS011;39461;40.948;73.006;2023-02-26T15:53:28;193.02;;;115.25;;
42866;SDS011;39461;40.948;73.006;2023-02-26T15:56:04;176.20;;;102.93;;
42866;SDS011;39461;40.948;73.006;2023-02-26T15:58:40;177.20;;;105.07;;
42866;SDS011;39461;40.948;73.006;2023-02-26T16:01:15;172.82;;;102.22;;
42866;SDS011;39461;40.948;73.006;2023-02-26T16:03:49;184.27;;;111.65;;
42866;SDS011;39461;40.948;73.006;2023-02-26T16:06:25;190.23;;;114.82;;
42866;SDS011;39461;40.948;73.006;2023-02-26T16:08:55;195.82;;;119.75;;
42866;SDS011;39461;40.948;73.006;2023-02-26T16:14:32;209.27;;;119.95;;
42866;SDS011;39461;40.948;73.006;2023-02-26T16:17:10;185.85;;;110.50;;
42866;SDS011;39461;40.948;73.006;2023-02-26T16:19:45;186.02;;;112.78;;
42866;SDS011;39461;40.948;73.006;2023-02-26T16:24:50;197.00;;;113.70;;
42866;SDS011;39461;40.948;73.006;2023-02-26T16:27:23;191.38;;;111.63;;
42866;SDS011;39461;40.948;73.006;2023-02-26T16:29:58;182.60;;;109.88;;
42866;SDS011;39461;40.948;73.006;2023-02-26T16:35:33;163.93;;;98.50;;
42866;SDS011;39461;40.948;73.006;2023-02-26T16:38:16;156.55;;;94.68;;
42866;SDS011;39461;40.948;73.006;2023-02-26T16:41:04;151.52;;;87.35;;
42866;SDS011;39461;40.948;73.006;2023-02-26T16:51:52;122.15;;;74.50;;
42866;SDS011;39461;40.948;73.006;2023-02-26T16:54:39;129.60;;;73.28;;
42866;SDS011;39461;40.948;73.006;2023-02-26T16:57:15;118.20;;;74.25;;
42866;SDS011;39461;40.948;73.006;2023-02-26T16:59:46;124.53;;;75.10;;
42866;SDS011;39461;40.948;73.006;2023-02-26T17:02:23;134.02;;;79.93;;
42866;SDS011;39461;40.948;73.006;2023-02-26T17:04:59;132.10;;;80.70;;
42866;SDS011;39461;40.948;73.006;2023-02-26T17:07:34;134.00;;;83.28;;
42866;SDS011;39461;40.948;73.006;2023-02-26T17:10:08;141.23;;;83.90;;
42866;SDS011;39461;40.948;73.006;2023-02-26T17:12:53;141.68;;;83.63;;
42866;SDS011;39461;40.948;73.006;2023-02-26T17:15:36;146.75;;;84.10;;
42866;SDS011;39461;40.948;73.006;2023-02-26T17:18:11;151.88;;;88.93;;
42866;SDS011;39461;40.948;73.006;2023-02-26T17:20:44;162.05;;;92.57;;
42866;SDS011;39461;40.948;73.006;2023-02-26T17:23:18;145.70;;;88.63;;
42866;SDS011;39461;40.948;73.006;2023-02-26T17:25:53;153.05;;;90.07;;
42866;SDS011;39461;40.948;73.006;2023-02-26T17:28:29;155.23;;;86.15;;
42866;SDS011;39461;40.948;73.006;2023-02-26T17:31:06;144.90;;;82.97;;
42866;SDS011;39461;40.948;73.006;2023-02-26T17:33:40;122.03;;;72.10;;
42866;SDS011;39461;40.948;73.006;2023-02-26T17:39:14;116.68;;;68.45;;
42866;SDS011;39461;40.948;73.006;2023-02-26T17:41:51;111.90;;;66.65;;
42866;SDS011;39461;40.948;73.006;2023-02-26T17:47:25;137.93;;;78.90;;
42866;SDS011;39461;40.948;73.006;2023-02-26T17:50:01;130.30;;;77.18;;
42866;SDS011;39461;40.948;73.006;2023-02-26T17:52:34;131.05;;;75.25;;
42866;SDS011;39461;40.948;73.006;2023-02-26T17:55:10;129.82;;;76.35;;
42866;SDS011;39461;40.948;73.006;2023-02-26T17:57:45;136.50;;;77.78;;
42866;SDS011;39461;40.948;73.006;2023-02-26T18:00:24;137.85;;;78.10;;
42866;SDS011;39461;40.948;73.006;2023-02-26T18:02:58;141.75;;;78.80;;
42866;SDS011;39461;40.948;73.006;2023-02-26T18:05:31;132.80;;;78.22;;
42866;SDS011;39461;40.948;73.006;2023-02-26T18:10:58;123.00;;;72.80;;
42866;SDS011;39461;40.948;73.006;2023-02-26T18:13:31;127.60;;;74.70;;
42866;SDS011;39461;40.948;73.006;2023-02-26T18:16:04;124.35;;;72.82;;
42866;SDS011;39461;40.948;73.006;2023-02-26T18:18:43;123.60;;;70.93;;
42866;SDS011;39461;40.948;73.006;2023-02-26T18:21:16;117.28;;;70.63;;
42866;SDS011;39461;40.948;73.006;2023-02-26T18:23:51;116.53;;;67.93;;
42866;SDS011;39461;40.948;73.006;2023-02-26T18:26:21;116.57;;;67.03;;
42866;SDS011;39461;40.948;73.006;2023-02-26T18:28:56;113.78;;;66.05;;
42866;SDS011;39461;40.948;73.006;2023-02-26T18:31:29;105.95;;;61.88;;
42866;SDS011;39461;40.948;73.006;2023-02-26T18:34:05;94.88;;;57.03;;
42866;SDS011;39461;40.948;73.006;2023-02-26T18:36:40;93.45;;;54.17;;
42866;SDS011;39461;40.948;73.006;2023-02-26T18:39:13;89.90;;;55.05;;
42866;SDS011;39461;40.948;73.006;2023-02-26T18:41:52;85.70;;;51.83;;
42866;SDS011;39461;40.948;73.006;2023-02-26T18:44:25;83.93;;;51.88;;
42866;SDS011;39461;40.948;73.006;2023-02-26T18:46:59;88.28;;;52.83;;
42866;SDS011;39461;40.948;73.006;2023-02-26T18:49:32;91.03;;;54.47;;
42866;SDS011;39461;40.948;73.006;2023-02-26T18:52:07;83.38;;;52.05;;
42866;SDS011;39461;40.948;73.006;2023-02-26T18:54:41;76.57;;;48.90;;
42866;SDS011;39461;40.948;73.006;2023-02-26T18:57:14;80.75;;;49.45;;
42866;SDS011;39461;40.948;73.006;2023-02-26T18:59:49;75.32;;;48.45;;
42866;SDS011;39461;40.948;73.006;2023-02-26T19:02:22;71.72;;;46.38;;
42866;SDS011;39461;40.948;73.006;2023-02-26T19:04:55;71.10;;;44.67;;